Terminal Aerodrome Forecast
Issued by NWS

Home | Current Version | Previous Version | Text Only | Print | Product List | Glossary On
Versions: 1 2 3 4 5 6 7 8 9 10 11 12 13 14 15 16 17 18 19 20 21 22 23 24 25 26 27 28 29 30 31
000
FTUS43 KDDC 241120
TAFHYS
TAF
KHYS 241120Z 2412/2512 10004KT 3SM BR BKN005 OVC008
     FM241600 03007KT 2SM -FZDZ BKN003
     FM241800 32008KT P6SM BKN003
     FM242000 31016G26KT P6SM BKN015
     FM250800 28005KT P6SM FEW250=

USA.gov is the U.S. government's official web portal to all federal, state and local government web resources and services.